createdAt,value
2018-06-13T00:01:31.232Z,93.80
2018-06-13T00:03:59.754Z,93.60
2018-06-13T00:06:28.245Z,93.80
2018-06-13T00:08:56.757Z,94.60
2018-06-13T00:11:25.218Z,94.20
2018-06-13T00:13:53.736Z,93.80
2018-06-13T00:16:22.282Z,94.20
2018-06-13T00:18:50.760Z,94.20
2018-06-13T00:21:19.284Z,94.20
2018-06-13T00:23:47.737Z,94.00
2018-06-13T00:26:16.414Z,94.30
2018-06-13T00:28:44.911Z,94.30
2018-06-13T00:31:13.426Z,94.20
2018-06-13T00:33:41.957Z,94.60
2018-06-13T00:36:10.517Z,94.00
2018-06-13T00:38:39.010Z,94.20
2018-06-13T00:43:35.844Z,94.10
2018-06-13T00:46:04.363Z,94.20
2018-06-13T00:48:32.845Z,94.10
2018-06-13T00:51:01.367Z,94.50
2018-06-13T00:53:29.897Z,94.10
2018-06-13T00:56:09.883Z,93.90
2018-06-13T00:58:38.415Z,94.10
2018-06-13T01:01:06.882Z,94.10
2018-06-13T01:03:35.386Z,93.90
2018-06-13T01:06:03.868Z,94.00
2018-06-13T01:08:32.381Z,94.10
2018-06-13T01:11:00.826Z,93.90
2018-06-13T01:13:30.088Z,94.10
2018-06-13T01:15:58.612Z,94.30
2018-06-13T01:18:27.080Z,94.10
2018-06-13T01:20:55.581Z,94.70
2018-06-13T01:23:24.074Z,94.20
2018-06-13T01:25:52.627Z,94.30
2018-06-13T01:28:21.128Z,94.40
2018-06-13T01:30:49.613Z,94.20
2018-06-13T01:33:18.111Z,95.00
2018-06-13T01:35:46.591Z,94.60
2018-06-13T01:38:15.084Z,94.60
2018-06-13T01:40:43.590Z,94.90
2018-06-13T01:43:12.072Z,94.60
2018-06-13T01:45:40.532Z,94.50
2018-06-13T01:48:08.983Z,94.70
2018-06-13T01:50:37.447Z,94.80
2018-06-13T01:53:05.872Z,94.60
2018-06-13T01:55:34.356Z,94.30
2018-06-13T01:58:02.779Z,94.20
2018-06-13T02:00:31.339Z,94.00
2018-06-13T02:02:59.848Z,94.50
2018-06-13T02:05:28.364Z,94.20
2018-06-13T02:07:56.832Z,94.10
2018-06-13T02:10:25.315Z,94.50
2018-06-13T02:12:53.810Z,94.30
2018-06-13T02:18:12.891Z,94.40
2018-06-13T02:20:41.406Z,94.50
2018-06-13T02:23:09.865Z,94.30
2018-06-13T02:25:38.347Z,94.30
2018-06-13T02:28:06.856Z,94.20
2018-06-13T02:30:35.352Z,94.40
2018-06-13T02:33:03.870Z,94.40
2018-06-13T02:35:32.391Z,94.30
2018-06-13T02:38:00.951Z,94.20
2018-06-13T02:40:29.457Z,94.40
2018-06-13T02:42:57.991Z,94.40
2018-06-13T02:45:26.474Z,94.30
2018-06-13T02:47:54.944Z,94.40
2018-06-13T02:50:23.374Z,94.70
2018-06-13T02:52:51.918Z,94.50
2018-06-13T02:55:21.870Z,94.50
2018-06-13T02:57:50.487Z,94.60
2018-06-13T03:00:19.001Z,95.30
2018-06-13T03:02:47.582Z,95.00
2018-06-13T03:05:17.150Z,95.10
2018-06-13T03:07:45.624Z,94.70
2018-06-13T03:10:14.254Z,94.90
2018-06-13T03:12:42.744Z,94.70
2018-06-13T03:15:11.350Z,94.70
2018-06-13T03:17:39.905Z,94.60
2018-06-13T03:20:08.570Z,94.50
2018-06-13T03:22:37.204Z,94.80
2018-06-13T03:25:05.776Z,94.60
2018-06-13T03:27:34.374Z,94.70
2018-06-13T03:30:02.932Z,94.90
2018-06-13T03:32:31.618Z,94.60
2018-06-13T03:35:00.237Z,94.70
2018-06-13T03:37:29.029Z,94.50
2018-06-13T03:39:57.869Z,94.50
2018-06-13T03:42:26.607Z,94.50
2018-06-13T03:44:55.446Z,94.30
2018-06-13T03:47:24.040Z,94.40
2018-06-13T03:49:52.756Z,94.30
2018-06-13T03:52:21.521Z,94.70
2018-06-13T03:54:50.202Z,94.60
2018-06-13T03:57:18.999Z,94.50
2018-06-13T03:59:47.745Z,94.60
2018-06-13T04:02:16.354Z,94.70
2018-06-13T04:04:45.018Z,95.00
2018-06-13T04:07:14.186Z,95.20
2018-06-13T04:09:42.949Z,95.10
2018-06-13T04:12:11.787Z,95.10
2018-06-13T04:14:40.443Z,95.00
2018-06-13T04:17:09.333Z,94.90
2018-06-13T04:19:38.155Z,94.90
2018-06-13T04:22:06.971Z,94.80
2018-06-13T04:24:35.749Z,94.80
2018-06-13T04:27:04.488Z,94.80
2018-06-13T04:29:33.347Z,94.70
2018-06-13T04:32:02.046Z,94.80
2018-06-13T04:34:30.840Z,94.80
2018-06-13T04:36:59.657Z,94.80
2018-06-13T04:39:28.594Z,94.80
2018-06-13T04:41:57.463Z,94.90
2018-06-13T04:44:26.209Z,94.70
2018-06-13T04:46:54.961Z,94.80
2018-06-13T04:49:23.745Z,94.80
2018-06-13T04:51:52.701Z,94.80
2018-06-13T04:54:21.679Z,95.00
2018-06-13T04:56:50.498Z,94.90
2018-06-13T04:59:19.201Z,94.80
2018-06-13T05:01:47.892Z,95.00
2018-06-13T05:04:16.736Z,95.00
2018-06-13T05:06:45.467Z,94.90
2018-06-13T05:09:14.241Z,94.80
2018-06-13T05:11:43.183Z,95.40
2018-06-13T05:14:11.938Z,94.80
2018-06-13T05:16:40.719Z,94.60
2018-06-13T05:19:09.344Z,94.50
2018-06-13T05:21:38.156Z,94.60
2018-06-13T05:25:10.502Z,94.70
2018-06-13T05:27:39.283Z,94.60
2018-06-13T05:30:08.114Z,94.70
2018-06-13T05:32:36.886Z,94.90
2018-06-13T05:40:53.356Z,94.60
2018-06-13T05:43:22.781Z,94.70
2018-06-13T05:45:51.680Z,94.70
2018-06-13T05:48:24.830Z,95.00
2018-06-13T05:52:02.733Z,94.60
2018-06-13T05:54:31.590Z,94.60
2018-06-13T05:57:06.989Z,94.60
2018-06-13T05:59:36.160Z,94.60
2018-06-13T06:02:05.058Z,94.60
2018-06-13T06:04:34.087Z,94.40
2018-06-13T06:07:02.939Z,94.70
2018-06-13T06:09:31.932Z,94.80
2018-06-13T06:12:00.788Z,94.50
2018-06-13T06:14:29.648Z,94.70
2018-06-13T06:16:59.475Z,94.30
2018-06-13T06:19:28.321Z,94.40
2018-06-13T06:21:57.315Z,94.20
2018-06-13T06:24:26.338Z,94.20
2018-06-13T06:26:55.118Z,94.50
2018-06-13T06:29:24.356Z,94.50
2018-06-13T06:31:53.328Z,94.40
2018-06-13T06:34:22.247Z,94.10
2018-06-13T06:36:51.336Z,93.90
2018-06-13T06:39:20.244Z,94.10
2018-06-13T06:41:49.034Z,94.00
2018-06-13T06:44:17.843Z,94.00
2018-06-13T06:46:46.654Z,93.80
2018-06-13T06:49:15.497Z,93.50
2018-06-13T06:51:44.340Z,93.40
2018-06-13T06:54:13.191Z,93.30
2018-06-13T06:56:42.488Z,93.50
2018-06-13T06:59:11.419Z,93.60
2018-06-13T07:01:40.192Z,93.80
2018-06-13T07:04:09.139Z,94.10
2018-06-13T07:06:40.551Z,94.90
2018-06-13T07:09:09.998Z,94.30
2018-06-13T07:11:38.794Z,94.20
2018-06-13T07:14:07.836Z,94.20
2018-06-13T07:16:37.153Z,94.50
2018-06-13T07:19:05.862Z,94.40
2018-06-13T07:21:34.753Z,94.20
2018-06-13T07:24:04.204Z,94.40
2018-06-13T07:29:01.434Z,94.20
2018-06-13T07:31:30.575Z,94.20
2018-06-13T07:33:59.555Z,94.20
2018-06-13T07:38:57.007Z,94.00
2018-06-13T07:41:26.000Z,93.90
2018-06-13T07:43:54.877Z,94.00
2018-06-13T07:46:23.857Z,94.10
2018-06-13T07:48:52.701Z,94.00
2018-06-13T07:51:21.658Z,94.50
2018-06-13T07:53:50.570Z,94.00
2018-06-13T07:56:19.478Z,94.10
2018-06-13T07:58:48.279Z,93.90
2018-06-13T08:01:17.162Z,93.90
2018-06-13T08:04:22.267Z,93.90
2018-06-13T08:06:51.300Z,94.00
2018-06-13T08:09:23.062Z,93.40
2018-06-13T08:11:52.331Z,93.80
2018-06-13T08:14:22.303Z,93.40
2018-06-13T08:16:51.638Z,93.60
2018-06-13T08:19:22.717Z,93.50
2018-06-13T08:21:57.668Z,93.40
2018-06-13T08:26:55.828Z,92.90
2018-06-13T08:29:24.880Z,93.10
2018-06-13T08:31:53.698Z,93.20
2018-06-13T08:34:23.025Z,93.10
2018-06-13T08:36:52.313Z,93.10
2018-06-13T08:39:21.488Z,93.10
2018-06-13T08:44:35.592Z,93.60
2018-06-13T08:47:04.834Z,93.40
2018-06-13T08:49:55.978Z,93.10
2018-06-13T08:52:25.036Z,93.00
2018-06-13T08:54:54.335Z,92.80
2018-06-13T08:57:23.657Z,92.90
2018-06-13T09:07:02.028Z,92.50
2018-06-13T09:09:31.140Z,92.80
2018-06-13T09:12:02.577Z,92.80
2018-06-13T09:14:31.955Z,92.70
2018-06-13T09:17:00.889Z,92.60
2018-06-13T09:19:30.149Z,92.70
2018-06-13T09:21:59.595Z,92.70
2018-06-13T09:24:32.376Z,92.80
2018-06-13T09:27:01.425Z,92.80
2018-06-13T09:30:06.158Z,92.50
2018-06-13T09:32:37.139Z,92.40
2018-06-13T09:35:06.545Z,92.40
2018-06-13T09:37:35.810Z,92.50
2018-06-13T09:40:04.989Z,92.30
2018-06-13T09:42:34.263Z,92.50
2018-06-13T09:45:34.464Z,92.50
2018-06-13T09:48:03.766Z,92.90
2018-06-13T09:50:33.267Z,92.70
2018-06-13T09:53:02.645Z,92.60
2018-06-13T10:04:39.921Z,92.50
2018-06-13T10:07:21.682Z,92.50
2018-06-13T10:09:51.061Z,92.60
2018-06-13T10:12:22.558Z,92.40
2018-06-13T10:14:54.410Z,92.50
2018-06-13T10:17:23.552Z,92.80
2018-06-13T10:19:52.982Z,92.60
2018-06-13T10:22:21.726Z,92.60
2018-06-13T10:25:06.725Z,92.60
2018-06-13T10:27:39.081Z,92.80
2018-06-13T10:30:24.894Z,92.70
2018-06-13T10:32:53.832Z,93.10
2018-06-13T10:35:22.716Z,92.30
2018-06-13T10:37:51.996Z,92.50
2018-06-13T10:40:21.069Z,92.60
2018-06-13T10:42:49.947Z,92.50
2018-06-13T10:45:37.429Z,92.50
2018-06-13T10:48:06.721Z,92.50
2018-06-13T10:50:35.844Z,92.80
2018-06-13T10:53:05.019Z,93.00
2018-06-13T10:55:34.021Z,93.40
2018-06-13T10:58:03.167Z,92.70
2018-06-13T11:00:32.366Z,92.10
2018-06-13T11:03:01.361Z,92.20
2018-06-13T11:05:30.401Z,92.20
2018-06-13T11:07:59.382Z,92.20
2018-06-13T11:10:28.698Z,91.80
2018-06-13T11:12:58.081Z,91.90
2018-06-13T11:15:27.062Z,91.80
2018-06-13T11:17:56.571Z,91.70
2018-06-13T11:20:27.054Z,91.70
2018-06-13T11:22:56.948Z,91.60
2018-06-13T11:25:32.985Z,91.30
2018-06-13T11:28:03.023Z,91.20
2018-06-13T11:30:32.106Z,90.60
2018-06-13T11:33:01.271Z,91.20
2018-06-13T11:37:59.288Z,91.10
2018-06-13T11:40:28.212Z,90.90
2018-06-13T11:43:02.127Z,90.60
2018-06-13T11:45:31.797Z,90.70
2018-06-13T11:48:07.879Z,90.80
2018-06-13T11:50:37.596Z,90.80
2018-06-13T11:53:11.801Z,90.70
2018-06-13T11:55:41.215Z,91.10
2018-06-13T12:00:46.490Z,91.30
2018-06-13T12:03:19.167Z,90.90
2018-06-13T12:05:48.461Z,91.30
2018-06-13T12:08:17.880Z,91.30
2018-06-13T12:10:47.071Z,91.60
2018-06-13T12:13:17.449Z,91.30
2018-06-13T12:15:51.728Z,91.40
2018-06-13T12:18:21.934Z,91.40
2018-06-13T12:23:45.849Z,91.30
2018-06-13T12:26:14.923Z,91.30
2018-06-13T12:28:49.436Z,91.30
2018-06-13T12:37:14.752Z,91.30
2018-06-13T12:39:45.524Z,90.70
2018-06-13T12:44:48.273Z,91.50
2018-06-13T12:47:16.919Z,91.10
2018-06-13T12:49:46.917Z,91.30
2018-06-13T12:52:47.519Z,91.30
2018-06-13T12:55:16.511Z,91.30
2018-06-13T13:03:03.183Z,91.00
2018-06-13T13:05:33.227Z,91.00
2018-06-13T13:08:07.378Z,91.10
2018-06-13T13:15:42.957Z,91.30
2018-06-13T13:18:11.894Z,91.10
2018-06-13T13:20:40.763Z,91.30
2018-06-13T13:23:13.591Z,91.10
2018-06-13T13:25:43.949Z,91.20
2018-06-13T13:37:23.041Z,91.00
2018-06-13T13:42:26.391Z,91.70
2018-06-13T13:44:55.488Z,91.40
2018-06-13T13:47:24.525Z,91.20
2018-06-13T13:49:53.517Z,91.20
2018-06-13T13:52:22.597Z,91.10
2018-06-13T13:54:51.636Z,91.10
2018-06-13T13:57:21.374Z,91.10
2018-06-13T13:59:57.266Z,91.10
2018-06-13T14:02:29.431Z,91.10
2018-06-13T14:04:58.752Z,91.10
2018-06-13T14:07:27.952Z,91.50
2018-06-13T14:09:57.357Z,91.20
2018-06-13T14:12:26.401Z,91.50
2018-06-13T14:14:55.493Z,91.50
2018-06-13T14:17:24.744Z,91.60
2018-06-13T14:19:53.619Z,91.70
2018-06-13T14:22:22.725Z,91.90
2018-06-13T14:24:52.020Z,91.80
2018-06-13T14:27:21.150Z,91.70
2018-06-13T14:29:50.157Z,92.10
2018-06-13T14:32:19.401Z,92.10
2018-06-13T14:34:48.518Z,92.20
2018-06-13T14:37:17.560Z,92.20
2018-06-13T14:42:37.007Z,92.40
2018-06-13T14:45:06.018Z,92.20
2018-06-13T14:47:35.290Z,92.30
2018-06-13T14:50:04.452Z,91.70
2018-06-13T14:55:01.895Z,92.20
2018-06-13T14:57:30.670Z,92.10
2018-06-13T15:00:21.368Z,92.90
2018-06-13T15:02:50.204Z,92.00
2018-06-13T15:05:19.122Z,92.10
2018-06-13T15:07:47.891Z,92.10
2018-06-13T15:10:16.846Z,92.10
2018-06-13T15:12:46.315Z,92.30
2018-06-13T15:15:14.851Z,92.30
2018-06-13T15:17:44.096Z,92.20
2018-06-13T15:20:15.134Z,91.80
2018-06-13T15:22:44.392Z,91.90
2018-06-13T15:31:01.964Z,92.00
2018-06-13T15:33:48.588Z,92.10
2018-06-13T15:36:23.334Z,92.10
2018-06-13T15:39:07.144Z,92.10
2018-06-13T15:41:38.512Z,91.80
2018-06-13T15:44:07.907Z,91.90
2018-06-13T15:46:38.831Z,92.80
2018-06-13T15:49:08.063Z,91.60
2018-06-13T15:51:37.265Z,91.90
2018-06-13T15:54:14.839Z,91.80
2018-06-13T15:56:45.536Z,91.90
2018-06-13T15:59:14.533Z,91.70
2018-06-13T16:01:43.499Z,91.90
2018-06-13T16:04:12.462Z,91.80
2018-06-13T16:06:41.955Z,91.80
2018-06-13T16:09:14.582Z,91.90
2018-06-13T16:11:44.605Z,91.90
2018-06-13T16:14:13.667Z,91.90
2018-06-13T16:16:42.752Z,91.90
2018-06-13T16:19:11.648Z,91.70
2018-06-13T16:21:40.844Z,91.90
2018-06-13T16:24:11.729Z,91.90
2018-06-13T16:26:40.625Z,91.90
2018-06-13T16:29:10.765Z,92.00
2018-06-13T16:31:40.041Z,92.10
2018-06-13T16:34:17.157Z,92.10
2018-06-13T16:36:46.791Z,92.00
2018-06-13T16:39:16.185Z,92.00
2018-06-13T16:41:45.486Z,91.90
2018-06-13T16:44:20.453Z,92.00
2018-06-13T16:46:50.996Z,92.10
2018-06-13T16:49:21.603Z,92.10
2018-06-13T16:52:10.540Z,91.90
2018-06-13T16:57:33.577Z,92.30
2018-06-13T17:00:03.488Z,92.30
2018-06-13T17:02:33.692Z,92.10
2018-06-13T17:05:04.277Z,92.10
2018-06-13T17:07:33.500Z,92.90
2018-06-13T17:12:45.873Z,92.30
2018-06-13T17:15:16.425Z,92.10
2018-06-13T17:17:45.733Z,92.00
2018-06-13T17:20:14.424Z,92.10
2018-06-13T17:22:57.109Z,92.20
2018-06-13T17:25:26.806Z,92.20
2018-06-13T17:28:00.105Z,92.20
2018-06-13T17:30:29.204Z,92.10
2018-06-13T17:32:58.687Z,92.10
2018-06-13T17:39:13.555Z,92.30
2018-06-13T17:42:10.810Z,92.20
2018-06-13T17:44:43.090Z,92.40
2018-06-13T17:54:26.784Z,92.70
2018-06-13T17:56:56.488Z,92.20
2018-06-13T18:02:24.578Z,92.60
2018-06-13T18:04:54.716Z,92.90
2018-06-13T18:07:28.157Z,93.00
2018-06-13T18:09:57.847Z,92.80
2018-06-13T18:12:31.295Z,92.90
2018-06-13T18:15:01.044Z,93.00
2018-06-13T18:17:30.909Z,93.10
2018-06-13T18:20:00.728Z,93.00
2018-06-13T18:22:53.155Z,93.00
2018-06-13T18:25:22.692Z,92.50
2018-06-13T18:27:52.765Z,92.60
2018-06-13T18:30:22.716Z,93.00
2018-06-13T18:32:52.081Z,93.40
2018-06-13T18:35:21.358Z,93.20
2018-06-13T18:40:20.079Z,93.00
2018-06-13T18:42:49.311Z,93.10
2018-06-13T18:45:19.388Z,92.60
2018-06-13T18:47:48.956Z,92.60
2018-06-13T18:50:18.821Z,92.50
2018-06-13T18:52:48.546Z,92.60
2018-06-13T18:55:19.014Z,92.70
2018-06-13T18:57:49.041Z,92.60
2018-06-13T19:00:19.875Z,92.80
2018-06-13T19:02:49.780Z,92.90
2018-06-13T19:05:19.533Z,93.00
2018-06-13T19:07:49.365Z,92.90
2018-06-13T19:10:19.534Z,92.90
2018-06-13T19:12:49.383Z,93.00
2018-06-13T19:15:19.395Z,93.20
2018-06-13T19:17:49.459Z,93.00
2018-06-13T19:20:19.546Z,93.00
2018-06-13T19:22:49.279Z,93.00
2018-06-13T19:25:18.883Z,93.20
2018-06-13T19:27:48.705Z,93.20
2018-06-13T19:32:48.574Z,92.60
2018-06-13T19:37:48.216Z,92.40
2018-06-13T19:40:17.214Z,92.80
2018-06-13T19:42:46.591Z,92.60
2018-06-13T19:45:17.179Z,92.80
2018-06-13T19:47:51.565Z,92.60
2018-06-13T19:50:21.434Z,92.70
2018-06-13T19:52:57.467Z,92.30
2018-06-13T19:55:33.194Z,92.50
2018-06-13T19:58:04.185Z,92.50
2018-06-13T20:00:35.076Z,92.20
2018-06-13T20:03:09.916Z,92.00
2018-06-13T20:05:42.683Z,92.10
2018-06-13T20:08:11.674Z,92.10
2018-06-13T20:10:41.282Z,92.20
2018-06-13T20:13:16.971Z,92.30
2018-06-13T20:15:51.753Z,92.30
2018-06-13T20:18:26.405Z,92.40
2018-06-13T20:20:55.904Z,92.80
2018-06-13T20:23:24.769Z,93.00
2018-06-13T20:25:58.955Z,92.80
2018-06-13T20:29:35.389Z,92.90
2018-06-13T20:32:04.602Z,93.00
2018-06-13T20:34:33.601Z,93.10
2018-06-13T20:37:03.412Z,93.10
2018-06-13T20:39:32.394Z,93.30
2018-06-13T20:42:01.495Z,93.00
2018-06-13T20:44:30.495Z,92.80
2018-06-13T20:46:59.322Z,93.00
2018-06-13T20:49:28.571Z,92.80
2018-06-13T20:51:58.377Z,93.00
2018-06-13T20:54:27.243Z,93.20
2018-06-13T20:56:56.910Z,92.80
2018-06-13T20:59:25.977Z,93.00
2018-06-13T21:01:55.561Z,93.10
2018-06-13T21:04:24.850Z,93.40
2018-06-13T21:06:53.613Z,93.30
2018-06-13T21:09:25.067Z,93.20
2018-06-13T21:11:54.068Z,93.20
2018-06-13T21:14:23.586Z,92.90
2018-06-13T21:16:53.591Z,93.00
2018-06-13T21:19:23.685Z,93.20
2018-06-13T21:21:54.299Z,93.20
2018-06-13T21:24:23.648Z,93.70
2018-06-13T21:26:53.208Z,93.30
2018-06-13T21:29:22.562Z,93.60
2018-06-13T21:31:51.588Z,93.50
2018-06-13T21:34:21.861Z,93.60
2018-06-13T21:36:51.440Z,93.70
2018-06-13T21:39:21.015Z,93.60
2018-06-13T21:41:50.228Z,93.50
2018-06-13T21:44:19.385Z,93.50
2018-06-13T21:46:48.027Z,93.40
2018-06-13T21:49:16.805Z,93.40
2018-06-13T21:51:45.623Z,93.60
2018-06-13T21:54:14.744Z,93.30
2018-06-13T21:56:43.895Z,93.20
2018-06-13T21:59:13.327Z,93.10
2018-06-13T22:01:42.607Z,93.20
2018-06-13T22:04:11.980Z,93.30
2018-06-13T22:06:40.928Z,93.10
2018-06-13T22:09:11.436Z,93.30
2018-06-13T22:11:45.743Z,93.20
2018-06-13T22:14:14.682Z,93.20
2018-06-13T22:16:43.690Z,93.10
2018-06-13T22:19:14.435Z,93.00
2018-06-13T22:21:43.429Z,93.10
2018-06-13T22:24:13.168Z,93.30
2018-06-13T22:26:43.721Z,93.10
2018-06-13T22:29:13.239Z,93.00
2018-06-13T22:31:42.242Z,93.30
2018-06-13T22:34:11.400Z,93.00
2018-06-13T22:36:40.818Z,92.90
2018-06-13T22:39:12.122Z,92.90
2018-06-13T22:41:41.625Z,92.80
2018-06-13T22:44:10.591Z,92.80
2018-06-13T22:46:40.287Z,92.80
2018-06-13T22:49:09.210Z,92.70
2018-06-13T22:51:38.694Z,92.80
2018-06-13T22:54:07.926Z,92.80
2018-06-13T22:56:38.006Z,92.80
2018-06-13T22:59:07.087Z,92.90
2018-06-13T23:01:36.701Z,93.00
2018-06-13T23:04:06.206Z,92.70
2018-06-13T23:06:35.067Z,92.60
2018-06-13T23:09:06.546Z,92.40
2018-06-13T23:11:36.059Z,92.30
2018-06-13T23:14:05.407Z,92.10
2018-06-13T23:16:34.519Z,92.20
2018-06-13T23:19:03.779Z,92.60
2018-06-13T23:21:33.232Z,92.50
2018-06-13T23:26:32.276Z,92.60
2018-06-13T23:29:01.264Z,93.10
2018-06-13T23:31:31.306Z,92.60
2018-06-13T23:34:00.265Z,92.60
2018-06-13T23:36:31.247Z,92.90
2018-06-13T23:39:00.390Z,93.00
2018-06-13T23:41:29.541Z,93.10
2018-06-13T23:43:58.849Z,92.90
2018-06-13T23:46:28.131Z,92.90
2018-06-13T23:48:57.962Z,92.80
2018-06-13T23:51:27.291Z,92.70
2018-06-13T23:53:56.249Z,92.80
2018-06-13T23:56:25.561Z,93.00
2018-06-13T23:58:55.599Z,92.50
